Time;durP1;ratioP1;P1;durP2;ratioP2;P2;SDS_P1;SDS_P2;PMS_P1;PMS_P2;Temp;Humidity;BMP_temperature;BMP_pressure;BME280_temperature;BME280_humidity;BME280_pressure;Samples;Min_cycle;Max_cycle;Signal;HPM_P1;HPM_P2
2022/11/18 00:00:00;;;;;;;;;;;;;;;10.34;91.42;98728.31;5135416;27;19967;-91
2022/11/18 00:02:25;;;;;;;;;;;;;;;10.46;91.60;98730.59;5135469;27;19950;-91
2022/11/18 00:04:51;;;;;;;;;;;;;;;10.66;90.59;98721.19;5135447;27;20003;-92
2022/11/18 00:07:16;;;;;;;;;;;;;;;10.73;90.43;98717.47;5116661;27;19919;-92
2022/11/18 00:15:28;;;;;;;;;;;;;;;10.57;90.81;98717.94;5135139;27;19973;-92
2022/11/18 00:17:53;;;;;;;;;;;;;;;10.58;90.03;98721.44;5135072;27;19911;-93
2022/11/18 00:20:18;;;;;;;;;;;;;;;10.65;89.87;98717.72;5135436;27;19911;-92
2022/11/18 00:22:44;;;;;;;;;;;;;;;10.57;90.20;98714.44;5135604;27;19911;-92
2022/11/18 00:25:10;;;;;;;;;;;;;;;10.51;90.00;98726.03;5134971;27;20296;-92
2022/11/18 00:30:38;;;;;;;;;;;;;;;10.56;90.82;98733.81;5134775;27;19964;-90
2022/11/18 00:36:07;;;;;;;;;;;;;;;10.34;91.19;98736.22;5135171;27;19930;-91
2022/11/18 00:38:32;;;;;;;;;;;;;;;10.43;90.35;98735.09;5134781;27;19919;-91
2022/11/18 00:41:01;;;;;;;;;;;;;;;10.42;90.25;98739.50;5135074;27;19911;-89
2022/11/18 00:43:26;;;;;;;;;;;;;;;10.38;90.94;98740.50;5116569;27;19908;-90
2022/11/18 00:45:52;;;;;;;;;;;;;;;10.49;89.90;98742.84;5134963;27;19922;-88
2022/11/18 00:48:20;;;;;;;;;;;;;;;10.48;90.16;98744.59;5135000;27;20307;-87
2022/11/18 00:50:46;;;;;;;;;;;;;;;10.58;89.59;98739.88;5134649;27;19915;-87
2022/11/18 00:53:11;;;;;;;;;;;;;;;10.57;89.23;98740.81;5134209;27;19911;-89
2022/11/18 00:55:37;;;;;;;;;;;;;;;10.57;89.40;98739.03;5134734;27;19912;-87
2022/11/18 00:58:02;;;;;;;;;;;;;;;10.49;88.34;98721.75;5134540;27;19915;-90
2022/11/18 01:00:27;;;;;;;;;;;;;;;10.44;88.19;98736.81;5134580;27;19911;-89
2022/11/18 01:02:53;;;;;;;;;;;;;;;10.19;89.24;98741.00;5134764;27;19953;-93
2022/11/18 01:05:18;;;;;;;;;;;;;;;10.48;88.72;98743.72;5134634;27;19946;-88
2022/11/18 01:07:44;;;;;;;;;;;;;;;10.34;88.63;98747.63;5133922;27;19935;-89
2022/11/18 01:10:09;;;;;;;;;;;;;;;10.37;88.43;98750.19;5116009;27;19911;-89
2022/11/18 01:15:18;;;;;;;;;;;;;;;10.49;88.13;98759.50;5134354;27;20023;-93
2022/11/18 01:17:44;;;;;;;;;;;;;;;10.45;87.95;98751.72;5115942;27;19912;-91
2022/11/18 01:20:09;;;;;;;;;;;;;;;10.41;87.77;98743.06;5133943;27;19911;-90
2022/11/18 01:22:34;;;;;;;;;;;;;;;10.34;88.38;98747.63;5133614;27;19968;-91
2022/11/18 01:25:01;;;;;;;;;;;;;;;10.39;87.73;98743.09;5134202;27;19911;-93
2022/11/18 01:27:26;;;;;;;;;;;;;;;10.06;89.69;98738.78;5134389;27;19918;-94
2022/11/18 01:29:52;;;;;;;;;;;;;;;10.25;88.62;98731.19;5134014;27;20364;-94
2022/11/18 01:32:17;;;;;;;;;;;;;;;9.54;92.93;98727.88;5133890;27;20383;-91
2022/11/18 01:37:45;;;;;;;;;;;;;;;9.73;92.76;98726.47;5134216;27;19914;-94
2022/11/18 01:40:11;;;;;;;;;;;;;;;9.67;92.19;98718.75;5132838;27;19912;-91
2022/11/18 01:42:37;;;;;;;;;;;;;;;9.36;94.26;98719.56;5133905;27;19968;-94
2022/11/18 01:45:03;;;;;;;;;;;;;;;9.42;93.79;98724.66;5115332;27;19959;-93
2022/11/18 01:50:33;;;;;;;;;;;;;;;9.92;91.52;98733.88;5132694;27;19922;-90
2022/11/18 01:56:04;;;;;;;;;;;;;;;9.92;90.66;98736.53;5133864;27;20011;-91
2022/11/18 01:58:32;;;;;;;;;;;;;;;10.03;90.31;98724.75;5133338;28;20349;-92
2022/11/18 02:00:58;;;;;;;;;;;;;;;10.09;89.46;98721.09;5134063;28;19916;-89
2022/11/18 02:03:24;;;;;;;;;;;;;;;10.04;89.57;98720.38;5133749;28;20348;-90
2022/11/18 02:08:53;;;;;;;;;;;;;;;10.07;88.89;98722.91;5133527;28;19914;-92
2022/11/18 02:14:03;;;;;;;;;;;;;;;9.94;89.32;98734.69;5133227;28;19946;-91
2022/11/18 02:16:50;;;;;;;;;;;;;;;10.04;89.06;98730.91;5132998;28;19908;-91
2022/11/18 02:19:16;;;;;;;;;;;;;;;10.12;88.35;98731.53;5133409;28;19911;-91
2022/11/18 02:21:53;;;;;;;;;;;;;;;10.06;88.70;98744.91;5133290;28;19934;-91
2022/11/18 02:24:27;;;;;;;;;;;;;;;9.63;89.83;98738.16;5133010;28;19912;-91
2022/11/18 02:30:00;;;;;;;;;;;;;;;10.03;88.97;98747.63;5133242;28;20010;-89
2022/11/18 02:35:31;;;;;;;;;;;;;;;10.15;88.32;98741.16;5133201;28;20395;-89
2022/11/18 02:38:03;;;;;;;;;;;;;;;10.11;88.47;98742.13;5133159;28;19918;-93
2022/11/18 02:40:31;;;;;;;;;;;;;;;10.07;87.73;98730.81;5132874;28;19934;-90
2022/11/18 02:43:07;;;;;;;;;;;;;;;10.01;87.60;98728.34;5132847;28;19947;-91
2022/11/18 02:45:33;;;;;;;;;;;;;;;10.03;87.34;98724.75;5132892;28;19919;-91
2022/11/18 02:51:03;;;;;;;;;;;;;;;10.08;87.39;98723.78;5132280;28;19922;-89
2022/11/18 02:56:33;;;;;;;;;;;;;;;10.06;88.58;98718.53;5136906;27;19972;-89
2022/11/18 02:58:58;;;;;;;;;;;;;;;10.02;88.24;98717.78;5136548;27;19911;-88
2022/11/18 03:01:26;;;;;;;;;;;;;;;9.94;88.38;98722.38;5136662;27;20367;-91
2022/11/18 03:03:51;;;;;;;;;;;;;;;10.10;88.08;98711.41;5135310;27;19925;-89
2022/11/18 03:06:35;;;;;;;;;;;;;;;9.96;87.91;98714.44;5136329;27;19933;-89
2022/11/18 03:09:03;;;;;;;;;;;;;;;10.01;87.85;98717.81;5136983;27;19912;-89
2022/11/18 03:11:32;;;;;;;;;;;;;;;9.92;88.08;98725.97;5136359;27;19908;-89
2022/11/18 03:13:57;;;;;;;;;;;;;;;9.84;88.39;98727.03;5136539;27;19959;-91
2022/11/18 03:16:25;;;;;;;;;;;;;;;9.95;88.43;98728.53;5136556;27;19934;-91
2022/11/18 03:22:01;;;;;;;;;;;;;;;9.92;87.36;98721.56;5136452;27;20002;-92
2022/11/18 03:24:30;;;;;;;;;;;;;;;9.98;87.18;98715.28;5133963;27;19912;-91
2022/11/18 03:27:03;;;;;;;;;;;;;;;9.91;87.28;98713.72;5136202;27;19912;-90
2022/11/18 03:32:35;;;;;;;;;;;;;;;9.83;86.84;98706.00;5136180;27;19915;-87
2022/11/18 03:35:11;;;;;;;;;;;;;;;9.75;86.16;98706.22;5135880;27;19947;-87
2022/11/18 03:37:39;;;;;;;;;;;;;;;9.58;86.80;98711.94;5117639;27;20296;-89
2022/11/18 03:43:16;;;;;;;;;;;;;;;9.44;87.53;98722.84;5135985;27;20292;-88
2022/11/18 03:48:50;;;;;;;;;;;;;;;9.23;87.54;98742.66;5135858;27;20387;-90
2022/11/18 03:51:17;;;;;;;;;;;;;;;9.13;87.48;98738.53;5136086;27;19922;-88
2022/11/18 03:53:46;;;;;;;;;;;;;;;9.19;88.17;98737.50;5135577;27;19922;-86
2022/11/18 03:56:14;;;;;;;;;;;;;;;9.34;88.30;98737.13;5135443;27;19915;-88
2022/11/18 03:58:52;;;;;;;;;;;;;;;8.78;87.87;98753.38;5135566;27;19911;-87
2022/11/18 04:01:23;;;;;;;;;;;;;;;8.85;89.63;98754.97;5135225;27;20387;-89
2022/11/18 04:03:48;;;;;;;;;;;;;;;8.59;92.21;98763.47;5135102;27;19912;-88
2022/11/18 04:06:23;;;;;;;;;;;;;;;8.78;91.59;98761.28;5134592;27;19934;-88
2022/11/18 04:12:02;;;;;;;;;;;;;;;8.38;94.99;98772.63;5135443;27;19931;-88
2022/11/18 04:14:28;;;;;;;;;;;;;;;8.56;95.17;98774.88;5135310;27;20280;-87
2022/11/18 04:16:54;;;;;;;;;;;;;;;8.59;96.11;98766.94;5134893;27;20416;-88
2022/11/18 04:22:22;;;;;;;;;;;;;;;9.22;93.40;98769.00;5135204;27;19915;-88
2022/11/18 04:24:47;;;;;;;;;;;;;;;9.38;92.75;98783.53;5116483;27;19911;-88
2022/11/18 04:27:13;;;;;;;;;;;;;;;9.39;91.29;98787.03;5116669;27;20261;-86
2022/11/18 04:29:38;;;;;;;;;;;;;;;9.46;91.09;98778.09;5134734;27;19911;-86
2022/11/18 04:35:06;;;;;;;;;;;;;;;9.50;90.88;98785.00;5135247;27;19963;-87
2022/11/18 04:37:31;;;;;;;;;;;;;;;9.35;90.78;98780.97;5115881;27;19915;-87
2022/11/18 04:39:57;;;;;;;;;;;;;;;9.36;91.46;98789.72;5134725;27;19916;-89
2022/11/18 04:42:22;;;;;;;;;;;;;;;9.52;90.86;98790.25;5135026;27;19916;-88
2022/11/18 04:44:47;;;;;;;;;;;;;;;9.41;90.77;98785.25;5134973;27;19918;-87
2022/11/18 04:47:13;;;;;;;;;;;;;;;9.48;90.99;98787.69;5134873;27;19911;-89
2022/11/18 04:49:38;;;;;;;;;;;;;;;9.68;90.15;98788.94;5116406;27;19911;-88
2022/11/18 04:52:04;;;;;;;;;;;;;;;9.82;89.78;98791.19;5134588;27;19915;-89
2022/11/18 04:54:29;;;;;;;;;;;;;;;9.86;89.37;98787.59;5134701;27;19918;-89
2022/11/18 04:56:55;;;;;;;;;;;;;;;9.91;89.07;98785.69;5134509;27;19914;-87
2022/11/18 04:59:22;;;;;;;;;;;;;;;9.87;88.88;98786.69;5132841;27;19915;-88
2022/11/18 05:01:47;;;;;;;;;;;;;;;9.97;88.75;98774.97;5134621;27;19918;-88
2022/11/18 05:04:17;;;;;;;;;;;;;;;9.98;88.70;98770.59;5134182;27;20443;-87
2022/11/18 05:09:45;;;;;;;;;;;;;;;9.91;88.53;98769.03;5134274;27;20288;-88
2022/11/18 05:14:55;;;;;;;;;;;;;;;9.67;89.30;98766.16;5134043;27;19926;-89
2022/11/18 05:20:23;;;;;;;;;;;;;;;9.87;88.82;98765.63;5134003;27;19978;-86
2022/11/18 05:22:48;;;;;;;;;;;;;;;9.97;88.19;98761.81;5134166;27;19998;-86
2022/11/18 05:25:14;;;;;;;;;;;;;;;9.98;88.56;98757.44;5133893;27;19912;-86
2022/11/18 05:27:39;;;;;;;;;;;;;;;9.85;88.28;98763.03;5134263;27;20391;-86
2022/11/18 05:33:07;;;;;;;;;;;;;;;10.00;88.25;98767.00;5134200;27;19914;-87
2022/11/18 05:35:35;;;;;;;;;;;;;;;9.94;88.29;98768.94;5133498;27;19915;-87
2022/11/18 05:38:00;;;;;;;;;;;;;;;9.97;88.21;98763.59;5134202;27;19918;-91
2022/11/18 05:43:28;;;;;;;;;;;;;;;9.81;87.56;98778.97;5134046;27;19914;-93
2022/11/18 05:45:54;;;;;;;;;;;;;;;9.68;88.93;98796.81;5134178;27;19911;-90
2022/11/18 05:48:19;;;;;;;;;;;;;;;9.66;88.63;98799.50;5133456;27;20293;-91
2022/11/18 05:50:48;;;;;;;;;;;;;;;9.62;88.66;98802.25;5133905;27;19954;-89
2022/11/18 05:56:19;;;;;;;;;;;;;;;9.80;89.48;98803.56;5134231;27;20413;-92
2022/11/18 05:58:54;;;;;;;;;;;;;;;9.81;88.90;98810.56;5134866;28;19915;-96
2022/11/18 06:01:29;;;;;;;;;;;;;;;9.76;88.76;98813.31;5137652;28;19911;-94
2022/11/18 06:03:55;;;;;;;;;;;;;;;9.86;88.30;98814.78;5133288;28;19914;-92
2022/11/18 06:06:21;;;;;;;;;;;;;;;9.91;88.27;98800.63;5132885;28;19912;-90
2022/11/18 06:08:54;;;;;;;;;;;;;;;9.87;88.94;98802.50;5134254;28;20054;-91
2022/11/18 06:11:41;;;;;;;;;;;;;;;9.80;89.61;98806.19;5136836;28;19911;-96
2022/11/18 06:17:16;;;;;;;;;;;;;;;9.95;89.64;98805.78;5136384;28;19915;-95
2022/11/18 06:19:42;;;;;;;;;;;;;;;10.01;89.39;98804.78;5132636;28;19968;-94
2022/11/18 06:22:08;;;;;;;;;;;;;;;10.04;89.88;98805.53;5134553;28;19912;-95
2022/11/18 06:27:36;;;;;;;;;;;;;;;9.97;91.63;98811.00;5136164;27;20429;-95
2022/11/18 06:30:03;;;;;;;;;;;;;;;9.80;91.91;98808.81;5136040;27;19908;-94
2022/11/18 06:32:28;;;;;;;;;;;;;;;10.06;91.73;98813.41;5119800;27;20361;-95
2022/11/18 06:37:56;;;;;;;;;;;;;;;10.31;90.33;98791.66;5137806;27;19918;-90
2022/11/18 06:40:22;;;;;;;;;;;;;;;10.41;90.08;98787.88;5137054;27;20292;-90
2022/11/18 06:45:31;;;;;;;;;;;;;;;10.49;90.51;98792.94;5137240;27;19915;-90
2022/11/18 06:47:57;;;;;;;;;;;;;;;10.44;90.59;98797.44;5118185;27;19916;-90
2022/11/18 06:50:22;;;;;;;;;;;;;;;10.45;91.17;98786.88;5137205;27;19912;-90
2022/11/18 06:52:48;;;;;;;;;;;;;;;10.59;90.40;98798.78;5137207;27;19943;-90
2022/11/18 06:55:13;;;;;;;;;;;;;;;10.68;89.59;98793.25;5137480;27;19919;-92
2022/11/18 06:57:40;;;;;;;;;;;;;;;10.49;90.27;98791.16;5137162;27;19912;-91
2022/11/18 07:00:05;;;;;;;;;;;;;;;10.35;90.95;98795.97;5136769;27;19912;-92
2022/11/18 07:02:31;;;;;;;;;;;;;;;10.62;90.70;98786.38;5137012;27;19937;-92
2022/11/18 07:04:56;;;;;;;;;;;;;;;10.87;89.23;98783.00;5117944;27;19915;-92
2022/11/18 07:07:21;;;;;;;;;;;;;;;10.83;89.50;98776.06;5135203;27;19911;-92
2022/11/18 07:09:47;;;;;;;;;;;;;;;11.08;88.32;98777.03;5136446;27;20368;-92
2022/11/18 07:12:12;;;;;;;;;;;;;;;11.06;87.65;98775.34;5118120;27;20372;-93
2022/11/18 07:14:37;;;;;;;;;;;;;;;10.91;87.57;98776.72;5136478;27;19976;-90
2022/11/18 07:17:03;;;;;;;;;;;;;;;11.08;87.66;98771.75;5136727;27;19999;-90
2022/11/18 07:19:29;;;;;;;;;;;;;;;11.14;87.52;98781.28;5136217;27;19911;-90
2022/11/18 07:21:55;;;;;;;;;;;;;;;11.14;87.30;98783.91;5136250;27;20010;-90
2022/11/18 07:24:21;;;;;;;;;;;;;;;11.24;86.85;98785.31;5136248;27;20392;-90
2022/11/18 07:26:46;;;;;;;;;;;;;;;10.51;90.68;98791.97;5136104;27;19919;-91
2022/11/18 07:29:11;;;;;;;;;;;;;;;10.87;90.32;98786.47;5136516;27;19994;-91
2022/11/18 07:31:38;;;;;;;;;;;;;;;11.04;88.44;98774.56;5136170;27;19912;-91
2022/11/18 07:34:03;;;;;;;;;;;;;;;10.99;88.48;98772.06;5135966;27;20380;-93
2022/11/18 07:36:29;;;;;;;;;;;;;;;11.02;88.74;98777.25;5138145;27;19918;-91
2022/11/18 07:38:54;;;;;;;;;;;;;;;10.86;90.88;98776.84;5135262;27;20376;-91
2022/11/18 07:41:21;;;;;;;;;;;;;;;11.05;90.50;98776.28;5135803;27;19915;-90
2022/11/18 07:43:47;;;;;;;;;;;;;;;11.20;89.65;98782.84;5117730;27;19916;-91
2022/11/18 07:46:12;;;;;;;;;;;;;;;11.04;90.99;98782.47;5117603;27;20332;-90
2022/11/18 07:48:38;;;;;;;;;;;;;;;11.13;89.74;98787.47;5135727;27;19911;-90
2022/11/18 07:51:03;;;;;;;;;;;;;;;10.97;92.26;98794.13;5135740;27;20369;-93
2022/11/18 07:53:29;;;;;;;;;;;;;;;11.01;91.34;98795.75;5136078;27;19964;-95
2022/11/18 07:55:55;;;;;;;;;;;;;;;10.73;92.96;98784.25;5134562;27;19978;-92
2022/11/18 07:58:20;;;;;;;;;;;;;;;11.24;91.20;98781.84;5134403;27;19947;-89
2022/11/18 08:00:45;;;;;;;;;;;;;;;11.31;90.87;98793.94;5136002;27;19967;-90
2022/11/18 08:03:10;;;;;;;;;;;;;;;11.12;92.94;98801.56;5135792;27;19969;-89
2022/11/18 08:05:36;;;;;;;;;;;;;;;11.05;93.38;98797.41;5135284;27;19937;-90
2022/11/18 08:08:01;;;;;;;;;;;;;;;11.23;92.49;98796.81;5135839;27;19911;-90
2022/11/18 08:10:26;;;;;;;;;;;;;;;11.24;92.36;98793.25;5135785;27;19935;-88
2022/11/18 08:12:52;;;;;;;;;;;;;;;11.21;91.96;98793.34;5135298;27;19976;-91
2022/11/18 08:15:18;;;;;;;;;;;;;;;11.38;91.68;98784.03;5135733;27;19917;-91
2022/11/18 08:17:44;;;;;;;;;;;;;;;11.59;90.30;98785.09;5134947;27;19912;-93
2022/11/18 08:20:09;;;;;;;;;;;;;;;11.82;88.90;98781.69;5135366;27;20023;-92
2022/11/18 08:22:35;;;;;;;;;;;;;;;11.66;89.31;98783.97;5135514;27;19934;-90
2022/11/18 08:25:00;;;;;;;;;;;;;;;11.70;89.64;98779.47;5135451;27;20368;-90
2022/11/18 08:27:25;;;;;;;;;;;;;;;11.77;88.60;98771.28;5135669;27;19919;-91
2022/11/18 08:29:50;;;;;;;;;;;;;;;11.52;89.21;98771.22;5135288;27;19918;-92
2022/11/18 08:32:16;;;;;;;;;;;;;;;11.73;89.32;98771.44;5135571;27;19911;-91
2022/11/18 08:34:41;;;;;;;;;;;;;;;11.81;88.04;98775.50;5135510;27;19918;-91
2022/11/18 08:37:06;;;;;;;;;;;;;;;11.81;88.17;98774.66;5134946;27;19918;-90
2022/11/18 08:42:36;;;;;;;;;;;;;;;11.98;87.12;98774.94;5134921;27;20019;-94
2022/11/18 08:48:16;;;;;;;;;;;;;;;12.09;86.82;98785.13;5134775;27;19914;-90
2022/11/18 08:50:42;;;;;;;;;;;;;;;12.14;87.74;98779.69;5134433;27;19922;-89
2022/11/18 08:56:14;;;;;;;;;;;;;;;12.36;86.77;98785.94;5134662;27;19914;-90
2022/11/18 08:58:40;;;;;;;;;;;;;;;12.41;87.10;98776.97;5134350;27;19966;-90
2022/11/18 09:01:06;;;;;;;;;;;;;;;12.54;85.57;98775.59;5134626;27;19950;-96
2022/11/18 09:03:31;;;;;;;;;;;;;;;12.64;84.90;98774.31;5133987;27;19907;-95
2022/11/18 09:06:06;;;;;;;;;;;;;;;12.62;84.64;98775.28;5133526;27;20334;-95
2022/11/18 09:08:31;;;;;;;;;;;;;;;12.37;86.10;98776.22;5133618;27;19912;-94
2022/11/18 09:10:56;;;;;;;;;;;;;;;12.37;85.96;98770.91;5134320;27;20383;-94
2022/11/18 09:13:23;;;;;;;;;;;;;;;12.34;87.14;98778.97;5133212;27;19912;-94
2022/11/18 09:15:48;;;;;;;;;;;;;;;12.50;86.43;98776.63;5134447;27;19911;-94
2022/11/18 09:18:14;;;;;;;;;;;;;;;12.65;86.19;98760.19;5132667;27;20330;-94
2022/11/18 09:20:39;;;;;;;;;;;;;;;12.65;85.99;98746.06;5133380;27;19919;-95
2022/11/18 09:23:04;;;;;;;;;;;;;;;12.49;87.21;98746.66;5134191;27;19965;-94
2022/11/18 09:25:30;;;;;;;;;;;;;;;12.61;87.13;98745.34;5133135;27;20397;-94
2022/11/18 09:27:55;;;;;;;;;;;;;;;12.59;87.11;98741.00;5134245;27;20258;-94
2022/11/18 09:30:20;;;;;;;;;;;;;;;12.55;86.95;98732.34;5134544;27;19991;-94
2022/11/18 09:32:46;;;;;;;;;;;;;;;12.68;86.43;98733.59;5132675;27;19965;-94
2022/11/18 09:35:11;;;;;;;;;;;;;;;12.70;85.70;98715.88;5133023;27;20293;-94
2022/11/18 09:40:49;;;;;;;;;;;;;;;12.64;87.60;98692.31;5134407;27;20011;-95
2022/11/18 09:43:34;;;;;;;;;;;;;;;12.89;87.21;98692.19;5132501;27;19954;-94
2022/11/18 09:46:04;;;;;;;;;;;;;;;12.63;87.45;98705.59;5133707;27;19937;-94
2022/11/18 09:51:14;;;;;;;;;;;;;;;13.11;87.37;98687.81;5134380;27;19922;-95
2022/11/18 09:53:43;;;;;;;;;;;;;;;12.87;87.95;98677.31;5132518;27;19911;-93
2022/11/18 09:56:13;;;;;;;;;;;;;;;12.55;89.50;98666.22;5125776;27;19907;-94
2022/11/18 10:01:41;;;;;;;;;;;;;;;12.54;90.44;98670.66;5133366;27;19915;-92
2022/11/18 10:04:16;;;;;;;;;;;;;;;12.41;90.59;98676.47;5133760;28;20300;-93
2022/11/18 10:06:43;;;;;;;;;;;;;;;12.35;91.55;98669.63;5132603;28;20060;-91
2022/11/18 10:12:14;;;;;;;;;;;;;;;12.54;91.50;98657.44;5133818;28;19914;-92
2022/11/18 10:14:43;;;;;;;;;;;;;;;12.60;91.07;98651.00;5131920;28;19911;-91
2022/11/18 10:17:28;;;;;;;;;;;;;;;12.31;92.96;98649.50;5134300;28;19911;-95
2022/11/18 10:20:07;;;;;;;;;;;;;;;12.05;94.30;98648.75;5133803;28;20396;-96
2022/11/18 10:22:42;;;;;;;;;;;;;;;12.23;94.86;98662.16;5132419;28;19911;-95
2022/11/18 10:25:12;;;;;;;;;;;;;;;12.34;94.16;98663.50;5132712;28;20014;-94
2022/11/18 10:27:39;;;;;;;;;;;;;;;12.47;93.99;98658.56;5134442;28;19911;-95
2022/11/18 10:33:25;;;;;;;;;;;;;;;12.32;93.74;98649.44;5136048;28;19918;-96
2022/11/18 10:36:07;;;;;;;;;;;;;;;12.28;95.27;98644.34;5130855;28;20002;-95
2022/11/18 10:38:32;;;;;;;;;;;;;;;12.45;94.22;98639.28;5113576;28;19921;-91
2022/11/18 10:40:59;;;;;;;;;;;;;;;12.33;94.52;98627.38;5132080;28;20283;-92
2022/11/18 10:43:43;;;;;;;;;;;;;;;12.45;94.52;98619.88;5133218;28;19994;-90
2022/11/18 10:46:24;;;;;;;;;;;;;;;12.51;93.37;98617.88;5115367;28;19918;-92
2022/11/18 10:52:02;;;;;;;;;;;;;;;12.79;92.95;98611.47;5132393;28;20382;-94
2022/11/18 10:54:27;;;;;;;;;;;;;;;12.75;92.68;98599.25;5133227;28;20441;-93
2022/11/18 10:57:16;;;;;;;;;;;;;;;12.86;93.55;98596.16;5115240;28;19911;-94
2022/11/18 10:59:51;;;;;;;;;;;;;;;12.79;93.53;98598.22;5123923;28;19912;-93
2022/11/18 11:02:18;;;;;;;;;;;;;;;13.08;92.33;98590.81;5115557;28;19918;-94
2022/11/18 11:04:44;;;;;;;;;;;;;;;13.04;91.43;98592.75;5132778;28;19911;-95
2022/11/18 11:07:33;;;;;;;;;;;;;;;13.14;91.83;98589.72;5115108;28;19980;-96
2022/11/18 11:13:08;;;;;;;;;;;;;;;13.11;90.26;98589.84;5132955;27;19962;-91
2022/11/18 11:15:38;;;;;;;;;;;;;;;13.20;90.06;98581.50;5117730;27;19912;-93
2022/11/18 11:20:51;;;;;;;;;;;;;;;13.57;88.80;98571.97;5138850;27;19920;-96
2022/11/18 11:23:17;;;;;;;;;;;;;;;13.52;87.59;98577.47;5103914;27;19920;-92
2022/11/18 11:25:48;;;;;;;;;;;;;;;13.47;88.53;98575.94;5136575;27;20422;-92
2022/11/18 11:28:13;;;;;;;;;;;;;;;13.26;90.48;98574.13;5119428;27;20372;-96
2022/11/18 11:30:44;;;;;;;;;;;;;;;13.51;89.06;98572.25;5136792;27;19914;-92
2022/11/18 11:33:37;;;;;;;;;;;;;;;13.70;87.54;98565.19;5136194;27;19919;-92
2022/11/18 11:36:08;;;;;;;;;;;;;;;13.84;87.23;98571.63;5117921;27;20395;-92
2022/11/18 11:38:53;;;;;;;;;;;;;;;13.93;87.80;98555.28;5135743;27;19915;-90
2022/11/18 11:44:33;;;;;;;;;;;;;;;14.14;86.32;98553.44;5136325;27;19956;-92
2022/11/18 11:49:55;;;;;;;;;;;;;;;13.91;87.31;98528.00;5135797;27;20341;-94
2022/11/18 11:52:30;;;;;;;;;;;;;;;13.66;88.41;98537.09;5136313;27;19955;-92
2022/11/18 11:58:22;;;;;;;;;;;;;;;13.90;89.19;98552.78;5136330;27;19915;-92
2022/11/18 12:00:59;;;;;;;;;;;;;;;13.99;86.98;98548.84;5137346;27;19911;-93
2022/11/18 12:06:27;;;;;;;;;;;;;;;13.35;90.95;98527.03;5135865;27;19914;-93
2022/11/18 12:18:13;;;;;;;;;;;;;;;13.72;90.20;98506.81;5123154;27;19973;-93
2022/11/18 12:20:49;;;;;;;;;;;;;;;13.79;89.46;98518.81;5104021;28;20303;-96
2022/11/18 12:23:15;;;;;;;;;;;;;;;14.05;88.37;98511.44;5095303;28;19919;-96
2022/11/18 12:25:43;;;;;;;;;;;;;;;14.20;88.67;98513.34;5101124;28;20450;-94
2022/11/18 12:28:10;;;;;;;;;;;;;;;14.33;86.27;98516.25;5114023;28;19918;-95
2022/11/18 12:33:46;;;;;;;;;;;;;;;14.40;85.71;98512.38;5114640;28;20006;-91
2022/11/18 12:36:29;;;;;;;;;;;;;;;14.45;84.99;98510.34;5112326;28;19911;-90
2022/11/18 12:38:54;;;;;;;;;;;;;;;14.56;85.23;98508.97;5114308;28;19919;-92
2022/11/18 12:44:46;;;;;;;;;;;;;;;14.73;85.04;98514.28;5071274;28;20001;-94
2022/11/18 12:47:12;;;;;;;;;;;;;;;14.91;84.06;98515.16;5072008;28;20435;-93
2022/11/18 12:49:43;;;;;;;;;;;;;;;14.66;82.96;98502.28;5091384;28;19919;-90
2022/11/18 12:52:27;;;;;;;;;;;;;;;14.58;83.80;98500.00;5112755;28;20296;-90
2022/11/18 12:54:52;;;;;;;;;;;;;;;14.62;82.94;98501.56;5114189;28;19915;-88
2022/11/18 12:57:26;;;;;;;;;;;;;;;14.73;81.59;98508.13;5114400;28;20003;-95
2022/11/18 13:02:56;;;;;;;;;;;;;;;15.02;81.47;98483.59;5114451;28;19914;-88
2022/11/18 13:08:25;;;;;;;;;;;;;;;15.09;82.01;98500.06;5113993;28;20429;-88
2022/11/18 13:17:50;;;;;;;;;;;;;;;14.74;82.63;98510.72;5113982;28;19964;-91
2022/11/18 13:19:41;;;;;;;;;;;;;;;14.71;82.81;98486.97;5113660;28;19954;-93
2022/11/18 13:25:04;;;;;;;;;;;;;;;14.82;81.68;98473.16;5084649;28;19911;-94
2022/11/18 13:27:46;;;;;;;;;;;;;;;14.60;82.91;98473.38;5112089;28;19912;-94
2022/11/18 13:30:12;;;;;;;;;;;;;;;14.77;82.43;98457.47;5112128;28;20320;-93
2022/11/18 13:32:44;;;;;;;;;;;;;;;14.74;82.77;98449.66;5111416;28;19965;-91
2022/11/18 13:35:10;;;;;;;;;;;;;;;14.63;83.33;98467.94;5113656;28;20018;-92
2022/11/18 13:37:46;;;;;;;;;;;;;;;14.82;82.28;98466.03;5112312;28;19955;-94
2022/11/18 13:40:20;;;;;;;;;;;;;;;14.79;82.51;98466.19;5113718;28;19950;-93
2022/11/18 13:42:46;;;;;;;;;;;;;;;14.75;83.09;98463.78;5111234;28;19954;-92
2022/11/18 13:45:12;;;;;;;;;;;;;;;14.82;81.66;98468.69;5114127;28;19954;-92
2022/11/18 13:47:40;;;;;;;;;;;;;;;14.77;81.86;98468.09;5113187;28;19911;-91
2022/11/18 13:53:37;;;;;;;;;;;;;;;14.35;85.20;98464.00;5111620;28;19923;-91
2022/11/18 13:59:19;;;;;;;;;;;;;;;14.27;88.12;98488.25;5113187;28;19938;-90
2022/11/18 14:01:45;;;;;;;;;;;;;;;14.51;86.11;98478.19;5113218;28;19923;-90
2022/11/18 14:04:17;;;;;;;;;;;;;;;14.14;87.28;98461.47;5112513;28;19912;-90
2022/11/18 14:06:43;;;;;;;;;;;;;;;14.05;87.10;98446.00;5113964;28;19915;-92
2022/11/18 14:09:17;;;;;;;;;;;;;;;14.12;86.47;98428.88;5113195;28;19912;-94
2022/11/18 14:11:44;;;;;;;;;;;;;;;14.18;86.34;98416.22;5113369;28;19919;-92
2022/11/18 14:14:11;;;;;;;;;;;;;;;13.64;88.69;98446.22;5094848;28;19912;-91
2022/11/18 14:16:40;;;;;;;;;;;;;;;13.49;90.75;98457.53;5094681;28;20018;-94
2022/11/18 14:19:06;;;;;;;;;;;;;;;13.67;89.90;98456.69;5112817;28;19912;-94
2022/11/18 14:24:37;;;;;;;;;;;;;;;13.50;91.00;98467.19;5115488;28;19973;-96
2022/11/18 14:27:21;;;;;;;;;;;;;;;13.31;91.46;98457.41;5115655;28;19973;-96
2022/11/18 14:29:49;;;;;;;;;;;;;;;13.19;93.65;98448.25;5115316;28;19912;-94
2022/11/18 14:32:15;;;;;;;;;;;;;;;12.89;95.33;98455.78;5112086;28;19911;-92
2022/11/18 14:34:40;;;;;;;;;;;;;;;12.71;97.48;98468.00;5114782;28;20365;-94
2022/11/18 14:37:17;;;;;;;;;;;;;;;13.04;96.32;98478.91;5116664;28;19951;-96
2022/11/18 14:39:53;;;;;;;;;;;;;;;13.17;94.36;98450.09;5115497;28;19970;-91
2022/11/18 14:42:25;;;;;;;;;;;;;;;13.11;94.17;98460.97;5118985;28;19916;-96
2022/11/18 14:44:54;;;;;;;;;;;;;;;13.03;94.44;98474.53;5115735;28;19911;-92
2022/11/18 14:47:29;;;;;;;;;;;;;;;13.21;93.29;98474.66;5113330;28;19969;-96
2022/11/18 14:49:54;;;;;;;;;;;;;;;13.23;92.69;98452.47;5116779;28;19926;-91
2022/11/18 14:52:19;;;;;;;;;;;;;;;13.11;92.30;98437.13;5114882;28;19911;-92
2022/11/18 14:54:45;;;;;;;;;;;;;;;13.19;92.67;98445.59;5118346;28;19954;-95
2022/11/18 14:57:13;;;;;;;;;;;;;;;13.03;92.96;98441.94;5116474;28;19916;-94
2022/11/18 14:59:38;;;;;;;;;;;;;;;13.22;92.06;98439.28;5116937;28;19912;-95
2022/11/18 15:02:04;;;;;;;;;;;;;;;13.22;90.58;98426.06;5097194;28;20003;-87
2022/11/18 15:04:42;;;;;;;;;;;;;;;;;;;;;
2022/11/18 15:07:15;;;;;;;;;;;;;;;13.21;89.61;98427.00;5118433;28;20023;-96
2022/11/18 15:10:12;;;;;;;;;;;;;;;13.29;90.73;98422.19;5120023;28;19934;-96
2022/11/18 15:15:40;;;;;;;;;;;;;;;13.31;89.98;98430.94;5137996;27;19914;-95
2022/11/18 15:18:07;;;;;;;;;;;;;;;13.50;88.48;98435.41;5120919;27;19911;-96
2022/11/18 15:20:33;;;;;;;;;;;;;;;13.53;88.24;98430.84;5119280;27;20288;-96
2022/11/18 15:22:59;;;;;;;;;;;;;;;13.54;87.77;98427.22;5119038;27;19911;-96
2022/11/18 15:25:25;;;;;;;;;;;;;;;13.69;87.20;98433.59;5106538;27;19916;-96
2022/11/18 15:28:01;;;;;;;;;;;;;;;13.93;86.10;98426.28;5144539;27;19911;-96
2022/11/18 15:33:30;;;;;;;;;;;;;;;13.75;86.51;98417.41;5144891;27;20002;-95
2022/11/18 15:38:58;;;;;;;;;;;;;;;13.81;86.43;98418.91;5136475;27;19918;-91
2022/11/18 15:41:25;;;;;;;;;;;;;;;13.89;85.95;98424.69;5117727;27;19911;-93
2022/11/18 15:43:51;;;;;;;;;;;;;;;13.73;86.22;98434.31;5136887;27;19911;-89
2022/11/18 15:46:18;;;;;;;;;;;;;;;13.67;85.89;98424.00;5136400;27;19912;-94
2022/11/18 15:48:43;;;;;;;;;;;;;;;13.81;86.15;98440.13;5117273;27;20334;-94
2022/11/18 15:51:09;;;;;;;;;;;;;;;13.67;86.14;98419.59;5117807;27;19916;-95
2022/11/18 15:56:52;;;;;;;;;;;;;;;13.83;86.15;98438.25;5135943;27;19915;-90
2022/11/18 16:02:20;;;;;;;;;;;;;;;13.87;84.74;98415.97;5136109;27;19914;-95
2022/11/18 16:04:46;;;;;;;;;;;;;;;13.78;85.72;98409.31;5096107;28;19912;-93
2022/11/18 16:07:11;;;;;;;;;;;;;;;13.61;86.59;98427.81;5096537;28;19912;-94
2022/11/18 16:17:50;;;;;;;;;;;;;;;13.31;88.58;98420.34;5115139;28;20029;-93